createdAt,value
2023-01-07T00:00:15.534Z,18.70
2023-01-07T00:03:05.013Z,18.20
2023-01-07T00:05:34.907Z,22.65
2023-01-07T00:08:04.547Z,19.75
2023-01-07T00:10:34.973Z,18.00
2023-01-07T00:13:04.293Z,20.20
2023-01-07T00:15:34.110Z,18.70
2023-01-07T00:18:03.413Z,17.65
2023-01-07T00:20:32.827Z,17.55
2023-01-07T00:23:02.243Z,17.80
2023-01-07T00:25:31.525Z,17.85
2023-01-07T00:28:01.715Z,17.30
2023-01-07T00:30:31.043Z,16.35
2023-01-07T00:33:04.463Z,14.93
2023-01-07T00:35:36.353Z,15.50
2023-01-07T00:38:05.929Z,15.32
2023-01-07T00:40:36.623Z,17.05
2023-01-07T00:43:06.419Z,15.13
2023-01-07T00:45:36.875Z,15.70
2023-01-07T00:48:06.651Z,15.23
2023-01-07T00:50:36.611Z,14.85
2023-01-07T00:53:05.947Z,16.20
2023-01-07T00:55:35.411Z,13.40
2023-01-07T00:58:04.884Z,14.70
2023-01-07T01:00:34.462Z,13.37
2023-01-07T01:03:03.857Z,15.40
2023-01-07T01:05:33.882Z,14.73
2023-01-07T01:08:03.421Z,13.75
2023-01-07T01:10:33.119Z,15.77
2023-01-07T01:13:02.349Z,14.67
2023-01-07T01:15:31.717Z,16.13
2023-01-07T01:18:01.000Z,13.10
2023-01-07T01:20:30.267Z,14.70
2023-01-07T01:22:59.949Z,13.27
2023-01-07T01:25:29.235Z,12.70
2023-01-07T01:27:58.781Z,11.95
2023-01-07T01:30:28.217Z,13.47
2023-01-07T01:32:58.351Z,13.53
2023-01-07T01:35:27.833Z,12.60
2023-01-07T01:37:59.567Z,13.83
2023-01-07T01:40:29.467Z,11.90
2023-01-07T01:42:58.801Z,11.80
2023-01-07T01:45:29.792Z,14.45
2023-01-07T01:48:02.520Z,12.93
2023-01-07T01:50:34.725Z,12.70
2023-01-07T01:53:07.249Z,13.40
2023-01-07T01:55:38.485Z,13.20
2023-01-07T01:58:11.530Z,14.40
2023-01-07T02:00:41.576Z,13.05
2023-01-07T02:03:12.809Z,13.15
2023-01-07T02:05:42.539Z,12.80
2023-01-07T02:08:12.510Z,14.05
2023-01-07T02:10:42.697Z,12.85
2023-01-07T02:13:17.467Z,13.25
2023-01-07T02:15:50.011Z,13.90
2023-01-07T02:18:26.900Z,12.30
2023-01-07T02:21:00.884Z,12.10
2023-01-07T02:23:47.930Z,13.40
2023-01-07T02:26:34.587Z,13.57
2023-01-07T02:29:21.889Z,12.65
2023-01-07T02:32:18.101Z,13.60
2023-01-07T02:34:54.240Z,12.15
2023-01-07T02:37:29.581Z,12.85
2023-01-07T02:40:01.179Z,14.00
2023-01-07T02:42:36.613Z,12.88
2023-01-07T02:45:11.518Z,13.65
2023-01-07T02:47:43.341Z,13.05
2023-01-07T02:50:12.753Z,12.40
2023-01-07T02:52:42.064Z,12.75
2023-01-07T02:55:13.553Z,13.77
2023-01-07T02:58:00.370Z,15.18
2023-01-07T03:00:38.684Z,13.70
2023-01-07T03:03:14.889Z,12.27
2023-01-07T03:05:51.965Z,14.35
2023-01-07T03:08:29.833Z,12.25
2023-01-07T03:11:00.498Z,13.20
2023-01-07T03:13:32.188Z,12.90
2023-01-07T03:16:06.366Z,13.13
2023-01-07T03:18:38.637Z,13.88
2023-01-07T03:21:11.685Z,13.78
2023-01-07T03:23:42.717Z,14.83
2023-01-07T03:26:12.507Z,14.45
2023-01-07T03:28:42.743Z,13.50
2023-01-07T03:31:13.850Z,13.63
2023-01-07T03:33:45.854Z,16.63
2023-01-07T03:36:16.857Z,13.40
2023-01-07T03:38:47.017Z,14.83
2023-01-07T03:41:30.785Z,14.00
2023-01-07T03:44:00.273Z,14.65
2023-01-07T03:46:29.585Z,14.75
2023-01-07T03:48:59.475Z,15.25
2023-01-07T03:51:29.428Z,16.47
2023-01-07T03:53:58.722Z,17.60
2023-01-07T03:56:28.886Z,14.90
2023-01-07T03:58:58.248Z,14.35
2023-01-07T04:01:27.813Z,15.40
2023-01-07T04:03:57.406Z,15.60
2023-01-07T04:06:26.765Z,15.10
2023-01-07T04:08:56.301Z,14.73
2023-01-07T04:11:25.715Z,14.97
2023-01-07T04:13:56.627Z,17.83
2023-01-07T04:16:26.336Z,14.60
2023-01-07T04:18:56.859Z,15.40
2023-01-07T04:21:26.112Z,16.40
2023-01-07T04:23:55.511Z,16.55
2023-01-07T04:26:24.785Z,16.03
2023-01-07T04:28:54.130Z,15.70
2023-01-07T04:31:23.958Z,14.60
2023-01-07T04:33:53.561Z,17.00
2023-01-07T04:36:22.848Z,15.40
2023-01-07T04:38:52.303Z,16.00
2023-01-07T04:41:22.534Z,16.45
2023-01-07T04:43:52.308Z,16.45
2023-01-07T04:46:21.719Z,17.65
2023-01-07T04:48:51.086Z,18.13
2023-01-07T04:51:20.680Z,17.35
2023-01-07T04:53:49.946Z,16.87
2023-01-07T04:56:19.613Z,17.67
2023-01-07T04:58:49.557Z,22.25
2023-01-07T05:01:19.497Z,17.90
2023-01-07T05:03:49.869Z,17.30
2023-01-07T05:06:19.189Z,17.03
2023-01-07T05:08:50.483Z,17.70
2023-01-07T05:11:21.098Z,17.80
2023-01-07T05:13:50.743Z,20.67
2023-01-07T05:16:20.354Z,19.65
2023-01-07T05:18:49.739Z,20.00
2023-01-07T05:21:19.075Z,17.27
2023-01-07T05:23:48.377Z,16.65
2023-01-07T05:26:17.706Z,16.55
2023-01-07T05:28:47.142Z,18.00
2023-01-07T05:31:16.901Z,17.80
2023-01-07T05:33:46.546Z,17.67
2023-01-07T05:36:16.136Z,19.20
2023-01-07T05:38:46.318Z,18.30
2023-01-07T05:41:15.696Z,17.40
2023-01-07T05:43:45.285Z,18.75
2023-01-07T05:46:14.599Z,18.55
2023-01-07T05:48:43.834Z,19.65
2023-01-07T05:51:13.247Z,18.80
2023-01-07T05:53:42.551Z,18.00
2023-01-07T05:56:11.891Z,19.80
2023-01-07T05:58:41.464Z,23.00
2023-01-07T06:01:10.794Z,21.60
2023-01-07T06:03:40.301Z,20.75
2023-01-07T06:06:10.492Z,21.90
2023-01-07T06:08:40.406Z,23.45
2023-01-07T06:11:09.697Z,25.70
2023-01-07T06:13:39.263Z,22.55
2023-01-07T06:16:09.236Z,23.25
2023-01-07T06:18:38.868Z,21.80
2023-01-07T06:21:08.118Z,25.60
2023-01-07T06:23:37.510Z,25.75
2023-01-07T06:26:06.742Z,22.30
2023-01-07T06:28:36.105Z,24.75
2023-01-07T06:31:05.634Z,23.55
2023-01-07T06:33:37.300Z,23.40
2023-01-07T06:36:07.450Z,27.25
2023-01-07T06:38:36.789Z,24.15
2023-01-07T06:41:06.257Z,28.43
2023-01-07T06:43:35.625Z,28.55
2023-01-07T06:46:05.403Z,27.60
2023-01-07T06:48:34.732Z,26.67
2023-01-07T06:51:04.274Z,27.80
2023-01-07T06:53:33.865Z,27.40
2023-01-07T06:56:03.676Z,26.95
2023-01-07T06:58:33.172Z,25.25
2023-01-07T07:01:04.459Z,26.33
2023-01-07T07:03:34.151Z,36.47
2023-01-07T07:06:04.228Z,26.50
2023-01-07T07:08:33.673Z,26.35
2023-01-07T07:11:02.936Z,23.65
2023-01-07T07:13:32.127Z,23.60
2023-01-07T07:16:01.485Z,22.20
2023-01-07T07:18:30.880Z,24.45
2023-01-07T07:21:00.174Z,22.70
2023-01-07T07:23:29.456Z,22.80
2023-01-07T07:25:59.338Z,23.47
2023-01-07T07:28:28.641Z,23.87
2023-01-07T07:30:58.288Z,24.30
2023-01-07T07:33:28.167Z,24.80
2023-01-07T07:35:58.093Z,24.25
2023-01-07T07:38:27.439Z,23.10
2023-01-07T07:40:57.160Z,23.27
2023-01-07T07:43:26.976Z,24.40
2023-01-07T07:45:57.348Z,22.85
2023-01-07T07:48:26.818Z,22.67
2023-01-07T07:50:56.907Z,22.70
2023-01-07T07:53:26.394Z,20.70
2023-01-07T07:55:56.560Z,21.87
2023-01-07T07:58:25.859Z,18.50
2023-01-07T08:00:55.202Z,16.93
2023-01-07T08:03:24.788Z,18.57
2023-01-07T08:05:54.181Z,19.50
2023-01-07T08:08:23.521Z,19.25
2023-01-07T08:10:55.189Z,18.85
2023-01-07T08:13:25.263Z,21.30
2023-01-07T08:15:55.096Z,17.30
2023-01-07T08:18:25.043Z,16.13
2023-01-07T08:20:55.256Z,16.33
2023-01-07T08:23:27.374Z,17.80
2023-01-07T08:26:00.383Z,17.62
2023-01-07T08:28:30.551Z,17.95
2023-01-07T08:31:02.489Z,15.10
2023-01-07T08:33:36.736Z,16.02
2023-01-07T08:36:18.048Z,14.45
2023-01-07T08:38:52.052Z,12.00
2023-01-07T08:41:22.253Z,13.77
2023-01-07T08:43:51.767Z,12.80
2023-01-07T08:46:21.218Z,11.75
2023-01-07T08:48:51.030Z,13.87
2023-01-07T08:51:20.401Z,31.87
2023-01-07T08:53:49.631Z,21.75
2023-01-07T08:56:19.157Z,17.75
2023-01-07T08:58:49.361Z,17.65
2023-01-07T09:01:18.956Z,15.85
2023-01-07T09:03:48.336Z,16.10
2023-01-07T09:06:17.739Z,23.47
2023-01-07T09:08:47.089Z,15.70
2023-01-07T09:11:16.710Z,13.90
2023-01-07T09:13:46.166Z,14.70
2023-01-07T09:16:15.375Z,14.30
2023-01-07T09:18:46.203Z,12.77
2023-01-07T09:21:15.540Z,11.60
2023-01-07T09:23:44.913Z,11.90
2023-01-07T09:26:14.134Z,13.00
2023-01-07T09:28:43.874Z,15.38
2023-01-07T09:31:13.545Z,15.33
2023-01-07T09:33:43.323Z,12.43
2023-01-07T09:36:12.714Z,11.77
2023-01-07T09:38:42.161Z,14.13
2023-01-07T09:41:23.490Z,16.57
2023-01-07T09:44:00.176Z,15.47
2023-01-07T09:46:31.330Z,15.70
2023-01-07T09:49:02.135Z,14.30
2023-01-07T09:51:33.480Z,12.27
2023-01-07T09:54:04.131Z,11.65
2023-01-07T09:56:34.689Z,11.83
2023-01-07T09:59:05.015Z,11.50
2023-01-07T10:01:37.809Z,11.20
2023-01-07T10:04:15.599Z,12.95
2023-01-07T10:06:47.064Z,11.53
2023-01-07T10:09:21.395Z,11.68
2023-01-07T10:11:57.074Z,12.10
2023-01-07T10:14:43.758Z,14.07
2023-01-07T10:17:21.411Z,12.95
2023-01-07T10:19:55.561Z,13.25
2023-01-07T10:22:29.159Z,13.10
2023-01-07T10:25:00.645Z,15.40
2023-01-07T10:27:31.277Z,15.68
2023-01-07T10:30:02.785Z,16.45
2023-01-07T10:32:33.603Z,13.98
2023-01-07T10:35:03.853Z,14.78
2023-01-07T10:37:34.943Z,15.45
2023-01-07T10:40:17.209Z,15.10
2023-01-07T10:42:49.486Z,13.78
2023-01-07T10:45:37.253Z,13.70
2023-01-07T10:48:11.901Z,15.53
2023-01-07T10:50:48.851Z,13.58
2023-01-07T10:53:24.151Z,36.40
2023-01-07T10:55:57.061Z,20.97
2023-01-07T10:58:27.846Z,25.37
2023-01-07T11:00:57.772Z,16.48
2023-01-07T11:03:28.184Z,16.42
2023-01-07T11:05:59.779Z,20.52
2023-01-07T11:08:32.652Z,17.15
2023-01-07T11:13:32.117Z,13.85
2023-01-07T11:16:07.553Z,29.57
2023-01-07T11:18:40.789Z,33.88
2023-01-07T11:21:43.483Z,27.82
2023-01-07T11:24:01.363Z,26.73
2023-01-07T11:26:31.355Z,25.70
2023-01-07T11:29:02.097Z,13.35
2023-01-07T11:31:48.746Z,12.73
2023-01-07T11:34:22.444Z,15.13
2023-01-07T11:36:52.101Z,12.88
2023-01-07T11:39:23.012Z,11.12
2023-01-07T11:41:53.929Z,11.80
2023-01-07T11:44:23.461Z,11.25
2023-01-07T11:46:53.502Z,16.20
2023-01-07T11:49:25.122Z,13.88
2023-01-07T11:51:54.781Z,13.13
2023-01-07T11:54:25.815Z,11.28
2023-01-07T11:57:10.541Z,13.23
2023-01-07T11:59:40.092Z,12.40
2023-01-07T12:02:23.336Z,11.75
2023-01-07T12:05:13.302Z,12.88
2023-01-07T12:07:45.800Z,12.20
2023-01-07T12:10:32.072Z,12.98
2023-01-07T12:13:03.348Z,11.28
2023-01-07T12:15:36.766Z,14.85
2023-01-07T12:18:33.652Z,13.78
2023-01-07T12:21:20.227Z,16.45
2023-01-07T12:23:56.750Z,14.78
2023-01-07T12:26:32.004Z,13.90
2023-01-07T12:29:06.371Z,26.52
2023-01-07T12:31:39.962Z,16.23
2023-01-07T12:34:16.297Z,16.10
2023-01-07T12:36:48.399Z,14.40
2023-01-07T12:41:50.346Z,403.48
2023-01-07T12:44:20.815Z,120.30
2023-01-07T12:47:30.956Z,164.20
2023-01-07T12:49:51.067Z,138.47
2023-01-07T12:52:23.139Z,241.93
2023-01-07T12:54:55.001Z,272.40
2023-01-07T12:57:27.951Z,329.48
2023-01-07T13:00:00.455Z,44.85
2023-01-07T13:02:33.012Z,23.50
2023-01-07T13:05:09.416Z,160.70
2023-01-07T13:07:46.018Z,917.65
2023-01-07T13:10:19.282Z,254.65
2023-01-07T13:12:50.402Z,255.67
2023-01-07T13:15:26.067Z,93.17
2023-01-07T13:17:56.142Z,80.15
2023-01-07T13:20:44.141Z,206.35
2023-01-07T13:23:18.852Z,570.25
2023-01-07T13:25:55.170Z,146.53
2023-01-07T13:28:33.579Z,389.12
2023-01-07T13:31:14.340Z,194.87
2023-01-07T13:33:47.330Z,169.77
2023-01-07T13:36:23.471Z,190.50
2023-01-07T13:39:03.791Z,497.87
2023-01-07T13:41:46.204Z,510.40
2023-01-07T13:46:45.337Z,929.75
2023-01-07T13:49:23.980Z,414.05
2023-01-07T13:51:53.820Z,1702.10
2023-01-07T13:54:40.961Z,1801.33
2023-01-07T13:57:24.860Z,1245.70
2023-01-07T13:59:55.777Z,1012.42
2023-01-07T14:02:26.028Z,870.75
2023-01-07T14:05:05.086Z,411.45
2023-01-07T14:07:44.253Z,147.13
2023-01-07T14:10:18.938Z,55.73
2023-01-07T14:12:55.258Z,28.87
2023-01-07T14:15:42.388Z,25.68
2023-01-07T14:18:20.637Z,22.85
2023-01-07T14:20:52.542Z,27.10
2023-01-07T14:23:27.772Z,33.80
2023-01-07T14:26:04.836Z,29.42
2023-01-07T14:28:56.264Z,33.65
2023-01-07T14:31:27.231Z,33.67
2023-01-07T14:33:57.857Z,36.95
2023-01-07T14:36:47.473Z,40.28
2023-01-07T14:39:33.055Z,39.55
2023-01-07T14:42:20.919Z,42.78
2023-01-07T14:44:51.006Z,44.48
2023-01-07T14:47:36.573Z,49.73
2023-01-07T14:50:16.678Z,41.00
2023-01-07T14:53:04.834Z,30.05
2023-01-07T14:55:48.521Z,29.98
2023-01-07T14:58:25.975Z,30.72
2023-01-07T15:01:00.957Z,21.82
2023-01-07T15:03:44.809Z,20.32
2023-01-07T15:06:18.077Z,23.45
2023-01-07T15:09:07.582Z,30.30
2023-01-07T15:11:55.234Z,28.83
2023-01-07T15:14:45.241Z,32.50
2023-01-07T15:17:16.070Z,35.20
2023-01-07T15:19:45.563Z,39.38
2023-01-07T15:22:37.987Z,49.67
2023-01-07T15:25:10.779Z,45.40
2023-01-07T15:27:45.290Z,36.03
2023-01-07T15:30:20.764Z,40.50
2023-01-07T15:32:55.151Z,69.60
2023-01-07T15:35:25.953Z,59.88
2023-01-07T15:37:56.568Z,58.92
2023-01-07T15:40:27.248Z,63.68
2023-01-07T15:42:57.827Z,53.25
2023-01-07T15:45:28.020Z,39.40
2023-01-07T15:48:06.495Z,41.28
2023-01-07T15:50:37.191Z,43.50
2023-01-07T15:53:18.655Z,39.58
2023-01-07T15:55:52.229Z,38.27
2023-01-07T15:58:23.003Z,35.88
2023-01-07T16:00:53.216Z,38.50
2023-01-07T16:03:22.459Z,44.42
2023-01-07T16:05:52.653Z,47.10
2023-01-07T16:08:23.850Z,45.85
2023-01-07T16:11:01.699Z,41.42
2023-01-07T16:13:31.913Z,40.35
2023-01-07T16:16:02.951Z,35.63
2023-01-07T16:18:32.538Z,35.60
2023-01-07T16:21:04.065Z,33.15
2023-01-07T16:23:34.284Z,34.18
2023-01-07T16:26:05.100Z,35.78
2023-01-07T16:28:37.380Z,48.80
2023-01-07T16:31:08.372Z,52.15
2023-01-07T16:33:38.270Z,57.83
2023-01-07T16:36:11.444Z,53.78
2023-01-07T16:38:42.525Z,48.23
2023-01-07T16:41:16.139Z,48.53
2023-01-07T16:43:45.536Z,42.83
2023-01-07T16:46:20.926Z,42.73
2023-01-07T16:49:12.041Z,45.27
2023-01-07T16:51:42.836Z,39.57
2023-01-07T16:54:21.977Z,45.80
2023-01-07T16:56:52.782Z,41.87
2023-01-07T16:59:23.838Z,42.67
2023-01-07T17:01:53.495Z,40.93
2023-01-07T17:04:27.213Z,38.47
2023-01-07T17:06:58.135Z,41.97
2023-01-07T17:09:28.659Z,39.67
2023-01-07T17:11:58.222Z,41.60
2023-01-07T17:14:45.205Z,40.97
2023-01-07T17:17:33.189Z,46.15
2023-01-07T17:20:16.811Z,45.28
2023-01-07T17:22:47.254Z,40.33
2023-01-07T17:25:21.070Z,40.07
2023-01-07T17:27:52.876Z,40.10
2023-01-07T17:30:23.173Z,41.02
2023-01-07T17:32:52.625Z,41.00
2023-01-07T17:35:22.633Z,37.70
2023-01-07T17:37:52.626Z,48.80
2023-01-07T17:40:22.009Z,46.03
2023-01-07T17:43:09.655Z,48.30
2023-01-07T17:45:39.021Z,48.33
2023-01-07T17:48:11.882Z,41.63
2023-01-07T17:50:42.000Z,46.73
2023-01-07T17:53:19.015Z,46.60
2023-01-07T17:55:48.467Z,55.00
2023-01-07T17:58:27.258Z,49.87
2023-01-07T18:00:56.936Z,61.70
2023-01-07T18:03:26.623Z,77.00
2023-01-07T18:05:56.631Z,68.03
2023-01-07T18:08:25.843Z,88.80
2023-01-07T18:11:14.187Z,81.10
2023-01-07T18:13:43.524Z,72.23
2023-01-07T18:16:13.707Z,76.30
2023-01-07T18:18:43.532Z,72.90
2023-01-07T18:21:12.943Z,74.20
2023-01-07T18:23:43.411Z,72.20
2023-01-07T18:26:13.405Z,72.07
2023-01-07T18:28:43.151Z,75.50
2023-01-07T18:31:12.998Z,92.80
2023-01-07T18:33:42.404Z,75.10
2023-01-07T18:36:11.872Z,85.90
2023-01-07T18:38:41.275Z,80.70
2023-01-07T18:41:10.534Z,79.17
2023-01-07T18:43:40.502Z,83.73
2023-01-07T18:46:10.057Z,82.35
2023-01-07T18:48:39.512Z,78.43
2023-01-07T18:51:10.071Z,88.40
2023-01-07T18:53:39.574Z,87.10
2023-01-07T18:56:11.156Z,95.27
2023-01-07T18:58:42.132Z,90.62
2023-01-07T19:01:13.357Z,80.07
2023-01-07T19:03:43.032Z,91.30
2023-01-07T19:06:13.042Z,87.10
2023-01-07T19:08:42.527Z,90.00
2023-01-07T19:11:12.975Z,87.17
2023-01-07T19:13:42.469Z,88.47
2023-01-07T19:16:12.695Z,95.40
2023-01-07T19:18:42.613Z,98.00
2023-01-07T19:21:12.469Z,93.20
2023-01-07T19:23:41.927Z,98.40
2023-01-07T19:26:11.594Z,101.07
2023-01-07T19:28:41.024Z,94.07
2023-01-07T19:31:11.079Z,100.05
2023-01-07T19:33:40.459Z,109.03
2023-01-07T19:36:10.798Z,122.25
2023-01-07T19:38:40.495Z,124.07
2023-01-07T19:41:11.209Z,131.57
2023-01-07T19:43:40.458Z,129.75
2023-01-07T19:46:10.654Z,136.75
2023-01-07T19:48:40.106Z,127.25
2023-01-07T19:51:10.324Z,128.90
2023-01-07T19:53:39.862Z,127.60
2023-01-07T19:56:11.114Z,135.80
2023-01-07T19:58:41.267Z,135.03
2023-01-07T20:01:11.980Z,132.43
2023-01-07T20:03:41.470Z,124.40
2023-01-07T20:06:11.984Z,120.60
2023-01-07T20:08:41.602Z,118.87
2023-01-07T20:11:11.256Z,114.10
2023-01-07T20:13:41.100Z,103.95
2023-01-07T20:16:11.502Z,109.30
2023-01-07T20:18:41.998Z,101.80
2023-01-07T20:21:11.856Z,115.30
2023-01-07T20:23:41.363Z,110.50
2023-01-07T20:26:11.564Z,105.73
2023-01-07T20:28:41.028Z,105.75
2023-01-07T20:31:11.937Z,108.00
2023-01-07T20:33:42.707Z,107.27
2023-01-07T20:36:13.376Z,103.63
2023-01-07T20:38:43.292Z,104.17
2023-01-07T20:41:13.836Z,95.05
2023-01-07T20:43:43.330Z,90.00
2023-01-07T20:46:12.663Z,93.97
2023-01-07T20:48:41.938Z,89.80
2023-01-07T20:51:12.949Z,83.87
2023-01-07T20:53:42.709Z,72.13
2023-01-07T20:56:12.139Z,69.30
2023-01-07T20:58:41.445Z,72.15
2023-01-07T21:01:11.941Z,62.35
2023-01-07T21:03:41.468Z,59.65
2023-01-07T21:06:11.815Z,59.35
2023-01-07T21:08:41.747Z,63.40
2023-01-07T21:11:11.575Z,57.10
2023-01-07T21:13:41.169Z,57.65
2023-01-07T21:16:11.105Z,61.60
2023-01-07T21:18:40.887Z,60.50
2023-01-07T21:21:11.205Z,56.85
2023-01-07T21:23:40.774Z,60.40
2023-01-07T21:26:12.267Z,62.35
2023-01-07T21:28:44.332Z,66.23
2023-01-07T21:33:42.846Z,56.90
2023-01-07T21:36:13.806Z,70.15
2023-01-07T21:38:43.412Z,63.93
2023-01-07T21:41:13.652Z,62.90
2023-01-07T21:43:43.233Z,65.10
2023-01-07T21:46:12.899Z,62.00
2023-01-07T21:48:45.741Z,62.07
2023-01-07T21:51:17.100Z,62.47
2023-01-07T21:53:46.458Z,66.40
2023-01-07T21:56:16.953Z,62.30
2023-01-07T21:58:46.416Z,59.90
2023-01-07T22:01:17.819Z,64.70
2023-01-07T22:03:48.352Z,64.77
2023-01-07T22:06:19.343Z,59.75
2023-01-07T22:08:49.068Z,57.60
2023-01-07T22:11:18.341Z,55.00
2023-01-07T22:13:50.702Z,58.50
2023-01-07T22:18:48.393Z,54.87
2023-01-07T22:21:17.878Z,49.80
2023-01-07T22:23:47.522Z,52.10
2023-01-07T22:26:17.704Z,54.10
2023-01-07T22:28:49.050Z,52.55
2023-01-07T22:31:20.085Z,52.25
2023-01-07T22:33:49.541Z,49.45
2023-01-07T22:36:22.066Z,49.70
2023-01-07T22:38:52.514Z,55.00
2023-01-07T22:41:22.508Z,54.40
2023-01-07T22:43:51.907Z,50.45
2023-01-07T22:46:23.224Z,47.40
2023-01-07T22:48:52.956Z,49.85
2023-01-07T22:51:24.730Z,47.25
2023-01-07T22:53:55.174Z,50.60
2023-01-07T22:56:25.328Z,48.60
2023-01-07T22:58:55.179Z,48.35
2023-01-07T23:01:25.148Z,53.95
2023-01-07T23:03:54.696Z,51.95
2023-01-07T23:06:24.207Z,48.75
2023-01-07T23:08:53.479Z,53.85
2023-01-07T23:11:41.121Z,53.45
2023-01-07T23:14:10.618Z,56.75
2023-01-07T23:16:39.983Z,58.90
2023-01-07T23:19:09.271Z,54.15
2023-01-07T23:21:39.996Z,56.75
2023-01-07T23:24:09.830Z,52.57
2023-01-07T23:26:39.494Z,52.95
2023-01-07T23:29:08.865Z,51.00
2023-01-07T23:31:38.216Z,53.00
2023-01-07T23:34:08.152Z,53.05
2023-01-07T23:36:37.612Z,48.03
2023-01-07T23:39:06.985Z,52.05
2023-01-07T23:41:36.520Z,50.65
2023-01-07T23:44:05.852Z,51.37
2023-01-07T23:46:35.422Z,48.75
2023-01-07T23:49:04.826Z,49.90
2023-01-07T23:51:34.392Z,49.55
2023-01-07T23:54:03.786Z,45.25
2023-01-07T23:56:33.117Z,48.75
2023-01-07T23:59:03.285Z,48.73
